5D5 weather

Woolsey Memorial Airport
Northport, Michigan, United States

Public forecast

Using degrees Fahrenheit for public forecast. Weather courtesy of forecast.io.

Closest aviation weather report (METAR) to Woolsey Memorial Airport

Closest report is Charlevoix Municipal Airport, 15.1 nm (28.0 km) NE. Retrieved 2019/10/14 12:36 UTC (0 seconds ago):

KCVX 141236Z AUTO 29014G18KT 10SM BKN060 07/00 A2990 RMK AO2 T00731004

Closest aviation forecast (TAF) to Woolsey Memorial Airport

Closest forecast is Cherry Capital Airport, 25.4 nm (47.1 km) S. Retrieved 2019/10/14 12:22 UTC (0 seconds ago):

TAF KTVC 141120Z 1412/1512 24008KT P6SM BKN045 TEMPO 1412/1416 BKN035 FM141600 27010G18KT P6SM BKN035 FM142000 25010KT P6SM SCT040 FM150100 VRB03KT P6SM SCT050 FM150500 VRB03KT P6SM FEW250